Time;durP1;ratioP1;P1;durP2;ratioP2;P2;SDS_P1;SDS_P2;PMS_P1;PMS_P2;Temp;Humidity;BMP_temperature;BMP_pressure;BME280_temperature;BME280_humidity;BME280_pressure;Samples;Min_cycle;Max_cycle;Signal;HPM_P1;HPM_P2
2023/01/14 00:06:50;;;;;;;33.70;22.00;;;;;;;0.17;74.50;101153.66;105515;1285;613112;-75
2023/01/14 00:09:17;;;;;;;36.00;22.10;;;;;;;1.00;71.07;101153.41;107245;1267;105586;-76
2023/01/14 00:11:48;;;;;;;31.50;19.20;;;;;;;1.06;70.75;101152.52;107294;1267;60597;-75
2023/01/14 00:14:37;;;;;;;35.70;20.90;;;;;;;1.11;70.01;101148.06;107248;1267;72205;-75
2023/01/14 00:17:04;;;;;;;34.70;20.50;;;;;;;1.14;69.52;101145.57;107316;1267;73569;-75
2023/01/14 00:19:31;;;;;;;33.90;19.90;;;;;;;1.21;69.25;101151.34;107292;1269;72973;-75
2023/01/14 00:21:58;;;;;;;32.80;20.40;;;;;;;1.26;68.95;101149.87;107352;1270;62189;-75
2023/01/14 00:24:25;;;;;;;31.80;19.80;;;;;;;1.29;68.45;101152.06;107344;1267;60989;-75
2023/01/14 00:26:54;;;;;;;35.70;19.40;;;;;;;1.30;68.20;101158.80;107331;1267;71260;-76
2023/01/14 00:29:24;;;;;;;35.20;19.90;;;;;;;1.33;67.89;101160.09;107325;1267;72973;-74
2023/01/14 00:31:56;;;;;;;32.80;19.00;;;;;;;1.35;67.57;101161.38;107329;1267;71713;-76
2023/01/14 00:34:24;;;;;;;;;;;;;;;1.37;67.14;101159.50;107324;1269;59809;-75
2023/01/14 00:36:51;;;;;;;32.00;18.70;;;;;;;1.36;66.87;101163.41;107317;1267;59671;-76
2023/01/14 00:39:20;;;;;;;34.90;20.30;;;;;;;1.29;66.63;101167.73;107296;1267;72781;-75
2023/01/14 00:41:47;;;;;;;30.10;17.70;;;;;;;1.22;66.45;101167.06;107955;1256;73022;-76
2023/01/14 00:44:14;;;;;;;34.20;19.60;;;;;;;1.23;66.33;101174.08;108004;1257;72324;-74
2023/01/14 00:46:41;;;;;;;32.20;19.70;;;;;;;1.25;66.13;101170.08;107964;1257;59902;-76
2023/01/14 00:49:15;;;;;;;33.50;19.10;;;;;;;1.27;66.11;101164.79;107864;1257;59663;-75
2023/01/14 00:51:41;;;;;;;33.10;18.90;;;;;;;1.25;66.01;101165.54;108007;1256;74136;-77
2023/01/14 00:54:09;;;;;;;31.80;18.50;;;;;;;1.19;65.88;101164.31;107850;1257;74967;-76
2023/01/14 00:56:36;;;;;;;32.40;17.70;;;;;;;1.18;65.76;101161.95;107816;1257;72756;-74
2023/01/14 00:59:03;;;;;;;31.00;18.00;;;;;;;1.21;65.73;101165.91;107846;1257;59843;-75
2023/01/14 01:01:30;;;;;;;31.90;18.10;;;;;;;1.24;65.86;101166.53;107824;1262;59647;-75
2023/01/14 01:03:58;;;;;;;29.60;16.60;;;;;;;1.28;66.13;101162.24;107939;1257;75446;-74
2023/01/14 01:06:26;;;;;;;27.70;15.50;;;;;;;1.28;65.76;101166.55;107768;1258;71213;-75
2023/01/14 01:08:58;;;;;;;24.80;15.30;;;;;;;1.28;65.67;101169.08;107822;1257;73061;-76
2023/01/14 01:11:26;;;;;;;24.90;15.60;;;;;;;1.27;65.73;101168.26;107834;1257;59763;-76
2023/01/14 01:13:56;;;;;;;25.80;15.20;;;;;;;1.26;65.81;101159.84;107847;1257;60018;-76
2023/01/14 01:16:24;;;;;;;24.80;14.90;;;;;;;1.27;65.79;101162.92;107864;1257;72264;-76
2023/01/14 01:18:52;;;;;;;30.70;17.20;;;;;;;1.26;65.72;101162.96;107786;1257;73671;-75
2023/01/14 01:21:20;;;;;;;32.10;18.20;;;;;;;1.26;65.86;101161.77;107902;1260;73506;-75
2023/01/14 01:23:49;;;;;;;28.20;15.90;;;;;;;1.26;65.72;101165.42;107801;1257;60223;-75
2023/01/14 01:26:22;;;;;;;28.80;16.90;;;;;;;1.27;65.85;101167.90;107638;1257;60433;-75
2023/01/14 01:28:54;;;;;;;28.50;16.50;;;;;;;1.29;65.95;101170.36;107941;1257;71568;-75
2023/01/14 01:31:21;;;;;;;29.60;17.00;;;;;;;1.31;65.78;101171.19;107917;1257;73899;-74
2023/01/14 01:33:48;;;;;;;34.00;18.10;;;;;;;1.31;65.74;101171.64;107893;1257;74535;-75
2023/01/14 01:36:24;;;;;;;32.30;18.60;;;;;;;1.31;65.75;101166.27;107876;1258;62289;-74
2023/01/14 01:38:51;;;;;;;31.60;18.50;;;;;;;1.31;65.75;101166.26;107858;1259;59508;-75
2023/01/14 01:41:21;;;;;;;26.30;16.20;;;;;;;1.30;65.68;101165.48;107837;1257;72842;-76
2023/01/14 01:44:03;;;;;;;25.80;15.10;;;;;;;1.29;65.70;101164.41;107887;1257;72132;-75
2023/01/14 01:46:30;;;;;;;;;;;;;;;1.27;65.74;101165.52;107871;1258;73761;-75
2023/01/14 01:49:03;;;;;;;24.30;14.70;;;;;;;1.25;65.88;101164.34;107898;1256;62427;-75
2023/01/14 01:51:34;;;;;;;24.30;14.30;;;;;;;1.25;65.72;101161.39;107936;1257;59481;-76
2023/01/14 01:54:03;;;;;;;27.40;16.00;;;;;;;1.25;65.84;101153.92;108028;1257;72785;-78
2023/01/14 01:56:34;;;;;;;25.40;14.80;;;;;;;1.23;65.63;101153.84;107932;1257;72844;-76
2023/01/14 01:59:02;;;;;;;24.20;13.30;;;;;;;1.21;65.45;101159.39;107846;1257;70612;-75
2023/01/14 02:01:31;;;;;;;29.70;16.60;;;;;;;1.20;65.64;101157.92;107867;1257;63896;-75
2023/01/14 02:03:58;;;;;;;26.90;14.80;;;;;;;1.16;65.46;101152.00;107856;1257;61503;-76
2023/01/14 02:06:25;;;;;;;22.90;13.40;;;;;;;1.14;65.50;101152.25;107820;1257;72761;-73
2023/01/14 02:08:53;;;;;;;23.50;14.80;;;;;;;1.12;65.70;101155.50;107733;1257;74087;-74
2023/01/14 02:11:28;;;;;;;20.20;13.00;;;;;;;1.09;65.51;101148.06;107715;1257;74866;-74
2023/01/14 02:14:14;;;;;;;21.10;13.30;;;;;;;1.08;65.66;101151.00;107754;1257;61041;-75
2023/01/14 02:16:48;;;;;;;20.60;12.00;;;;;;;1.08;65.56;101146.00;107639;1257;60504;-75
2023/01/14 02:19:59;;;;;;;21.20;12.90;;;;;;;1.07;65.66;101143.85;107857;1257;75108;-75
2023/01/14 02:22:32;;;;;;;21.10;11.60;;;;;;;1.06;65.79;101149.70;107946;1257;74163;-75
2023/01/14 02:25:31;;;;;;;21.20;12.30;;;;;;;1.07;65.77;101152.35;107755;1257;74740;-75
2023/01/14 02:28:20;;;;;;;24.30;13.60;;;;;;;1.08;65.56;101154.84;107736;1257;60810;-76
2023/01/14 02:31:10;;;;;;;23.60;13.90;;;;;;;1.07;65.81;101155.46;107945;1257;62568;-75
2023/01/14 02:33:43;;;;;;;23.60;13.30;;;;;;;1.08;65.77;101151.42;108019;1257;74277;-74
2023/01/14 02:36:35;;;;;;;22.60;13.20;;;;;;;1.09;65.81;101150.43;107777;1257;72015;-75
2023/01/14 02:39:10;;;;;;;25.40;13.20;;;;;;;1.10;65.84;101148.19;107802;1259;72920;-75
2023/01/14 02:45:02;;;;;;;24.30;13.60;;;;;;;1.08;65.73;101148.42;107751;1258;63007;-74
2023/01/14 02:47:29;;;;;;;24.40;14.20;;;;;;;1.07;65.97;101150.98;107903;1257;75060;-75
2023/01/14 02:49:57;;;;;;;25.90;13.90;;;;;;;1.05;66.02;101150.90;107796;1257;74877;-75
2023/01/14 02:52:25;;;;;;;26.70;14.20;;;;;;;1.00;66.02;101155.45;107814;1257;72539;-74
2023/01/14 02:54:57;;;;;;;23.00;12.70;;;;;;;1.01;65.93;101155.98;107690;1257;61492;-75
2023/01/14 02:57:45;;;;;;;20.30;10.90;;;;;;;1.00;66.06;101154.66;107887;1257;61137;-75
2023/01/14 03:00:22;;;;;;;24.60;12.60;;;;;;;0.96;66.00;101158.65;107820;1257;73984;-75
2023/01/14 03:02:50;;;;;;;28.20;14.70;;;;;;;0.91;65.96;101161.75;107727;1257;75176;-75
2023/01/14 03:05:26;;;;;;;28.20;15.30;;;;;;;0.88;66.05;101161.38;107852;1257;72912;-74
2023/01/14 03:08:18;;;;;;;26.70;14.10;;;;;;;0.87;66.08;101161.52;107878;1257;62373;-75
2023/01/14 03:10:54;;;;;;;26.90;15.10;;;;;;;0.87;66.17;101159.17;107757;1257;62295;-74
2023/01/14 03:13:28;;;;;;;27.00;15.50;;;;;;;0.87;66.35;101157.75;107841;1257;71399;-75
2023/01/14 03:16:00;;;;;;;26.60;15.60;;;;;;;0.86;66.37;101158.32;107829;1257;74743;-76
2023/01/14 03:18:38;;;;;;;26.00;14.90;;;;;;;0.87;66.33;101158.69;107730;1257;74519;-76
2023/01/14 03:21:08;;;;;;;32.80;17.40;;;;;;;0.88;66.37;101161.41;107902;1257;61093;-76
2023/01/14 03:23:38;;;;;;;36.60;19.50;;;;;;;0.87;66.38;101159.25;107835;1257;62638;-75
2023/01/14 03:26:10;;;;;;;44.70;19.30;;;;;;;0.88;66.44;101164.11;107876;1257;75212;-75
2023/01/14 03:28:39;;;;;;;39.90;18.10;;;;;;;0.89;66.45;101160.98;107779;1257;75103;-75
2023/01/14 03:31:11;;;;;;;34.60;18.80;;;;;;;0.89;66.55;101162.20;107746;1258;72779;-75
2023/01/14 03:33:47;;;;;;;30.80;15.80;;;;;;;0.90;66.40;101161.08;107862;1257;63058;-75
2023/01/14 03:36:14;;;;;;;26.70;15.00;;;;;;;0.91;66.63;101162.86;107694;1257;60288;-76
2023/01/14 03:38:54;;;;;;;26.10;15.60;;;;;;;0.94;66.48;101161.38;107691;1257;73346;-76
2023/01/14 03:44:18;;;;;;;35.00;17.80;;;;;;;0.98;66.46;101168.19;107825;1257;75168;-75
2023/01/14 03:46:45;;;;;;;46.70;22.20;;;;;;;0.94;66.44;101170.77;107873;1256;63194;-75
2023/01/14 03:49:12;;;;;;;35.50;21.10;;;;;;;0.91;66.46;101170.85;107950;1257;59513;-76
2023/01/14 03:52:04;;;;;;;37.40;19.40;;;;;;;0.90;66.31;101170.38;107928;1257;74151;-76
2023/01/14 03:54:47;;;;;;;28.90;16.60;;;;;;;0.86;66.25;101167.78;107695;1257;74910;-74
2023/01/14 03:57:20;;;;;;;29.40;16.20;;;;;;;0.86;66.38;101163.80;107919;1257;73554;-75
2023/01/14 03:59:57;;;;;;;27.40;14.90;;;;;;;0.86;66.44;101158.86;107878;1260;61828;-75
2023/01/14 06:28:58;;;;;;;26.50;15.60;;;;;;;-0.28;78.86;101225.58;105801;1283;613188;-65
2023/01/14 06:31:25;;;;;;;25.30;13.60;;;;;;;0.61;75.52;101225.39;107563;1260;119291;-64
2023/01/14 06:33:55;;;;;;;24.20;13.70;;;;;;;0.66;75.07;101223.19;107616;1261;60527;-64
2023/01/14 06:36:23;;;;;;;26.50;13.90;;;;;;;0.69;74.36;101219.90;107642;1260;72750;-65
2023/01/14 06:38:50;;;;;;;23.80;13.70;;;;;;;0.75;74.11;101221.84;107693;1260;73158;-64
2023/01/14 06:41:17;;;;;;;23.80;13.10;;;;;;;0.82;73.70;101220.58;107679;1260;72034;-64
2023/01/14 06:43:44;;;;;;;25.60;13.70;;;;;;;0.89;73.37;101219.20;107641;1260;60115;-65
2023/01/14 10:22:58;;;;;;;23.40;14.40;;;;;;;2.21;71.79;101218.61;105769;1283;614022;-71
2023/01/14 10:25:30;;;;;;;23.20;14.00;;;;;;;3.07;68.13;101207.46;107336;1265;120146;-71
2023/01/14 10:28:20;;;;;;;21.50;12.90;;;;;;;3.17;67.41;101205.72;108093;1257;61638;-71
2023/01/14 10:31:16;;;;;;;21.90;13.30;;;;;;;3.25;66.54;101199.69;107730;1257;74567;-71
2023/01/14 10:34:14;;;;;;;;;;;;;;;;;;;;;
2023/01/14 10:37:04;;;;;;;;;;;;;;;;;;;;;
2023/01/14 10:40:08;;;;;;;25.30;14.50;;;;;;;3.44;65.24;101189.60;108118;1256;61734;-70
2023/01/14 10:42:42;;;;;;;27.60;14.80;;;;;;;3.50;64.65;101188.11;107935;1256;62207;-74
2023/01/14 10:45:34;;;;;;;26.40;15.10;;;;;;;3.56;64.26;101185.25;108092;1254;72152;-71
2023/01/14 10:48:39;;;;;;;25.40;13.80;;;;;;;3.61;63.88;101183.40;108192;1254;72945;-70
2023/01/14 10:51:42;;;;;;;24.30;14.10;;;;;;;3.60;63.27;101175.48;107954;1255;71667;-71
2023/01/14 10:54:20;;;;;;;24.80;13.90;;;;;;;3.56;62.90;101172.54;108043;1254;60553;-72
2023/01/14 10:57:15;;;;;;;21.30;12.50;;;;;;;3.59;62.76;101172.59;107709;1259;61591;-71
2023/01/14 11:00:10;;;;;;;25.50;14.50;;;;;;;3.60;62.50;101174.96;107632;1265;75073;-71
2023/01/14 11:02:51;;;;;;;23.30;13.60;;;;;;;3.61;62.35;101178.97;107659;1260;75218;-72
2023/01/14 11:05:34;;;;;;;24.50;13.70;;;;;;;3.59;62.01;101182.39;107613;1260;74988;-71
2023/01/14 11:09:02;;;;;;;25.20;14.20;;;;;;;3.58;61.76;101186.00;107693;1259;61553;-71
2023/01/14 11:12:06;;;;;;;26.60;14.60;;;;;;;3.61;61.71;101185.15;107690;1260;61524;-71
2023/01/14 11:15:11;;;;;;;22.90;13.30;;;;;;;3.61;61.44;101185.11;107583;1260;71698;-71
2023/01/14 11:18:20;;;;;;;23.70;13.50;;;;;;;3.60;61.38;101188.04;107645;1260;73556;-71
2023/01/14 11:21:15;;;;;;;22.70;12.00;;;;;;;3.53;60.84;101187.67;107418;1262;74511;-71
2023/01/14 11:24:24;;;;;;;;;;;;;;;;;;;;;
2023/01/14 11:27:15;;;;;;;23.70;13.30;;;;;;;3.34;60.68;101196.13;107593;1260;62551;-71
2023/01/14 11:30:02;;;;;;;28.40;15.40;;;;;;;3.34;60.79;101196.34;108015;1256;71742;-70
2023/01/14 11:33:01;;;;;;;27.30;14.80;;;;;;;3.36;60.69;101198.35;108030;1256;72779;-71
2023/01/14 11:36:07;;;;;;;;;;;;;;;;;;;;;
2023/01/14 11:38:55;;;;;;;31.40;16.40;;;;;;;3.25;60.77;101194.45;108089;1256;61996;-72
2023/01/14 11:41:45;;;;;;;26.10;14.30;;;;;;;3.22;60.71;101191.10;107947;1256;61074;-70
2023/01/14 11:44:30;;;;;;;26.90;15.00;;;;;;;3.20;60.59;101189.49;107997;1256;75441;-70
2023/01/14 11:47:26;;;;;;;27.60;15.00;;;;;;;3.13;60.71;101189.21;108097;1256;73690;-70
2023/01/14 11:50:34;;;;;;;27.40;15.30;;;;;;;3.18;60.99;101188.60;108004;1257;72946;-70
2023/01/14 11:53:29;;;;;;;27.80;15.60;;;;;;;3.27;61.01;101191.13;107983;1257;60683;-71
2023/01/14 11:56:26;;;;;;;;;;;;;;;;;;;;;
2023/01/14 11:59:15;;;;;;;26.20;14.40;;;;;;;3.36;60.90;101195.54;108138;1256;73442;-70
2023/01/14 12:02:19;;;;;;;28.90;16.30;;;;;;;3.25;60.48;101193.48;107996;1256;74793;-71
2023/01/14 12:08:31;;;;;;;26.80;15.30;;;;;;;3.24;61.00;101193.87;108086;1257;60976;-70
2023/01/14 14:46:09;;;;;;;31.30;17.50;;;;;;;1.53;73.93;101251.63;105635;1285;613483;-76
2023/01/14 14:48:40;;;;;;;;;;;;;;;2.42;70.76;101251.95;107225;1266;120378;-75
2023/01/14 14:51:33;;;;;;;31.10;16.20;;;;;;;2.44;70.14;101244.39;107352;1266;62429;-75
2023/01/14 14:54:02;;;;;;;31.10;16.60;;;;;;;2.44;69.79;101244.31;107297;1266;71459;-74
2023/01/14 14:56:29;;;;;;;27.90;14.90;;;;;;;2.50;69.46;101241.70;107329;1265;72929;-75
2023/01/14 14:58:56;;;;;;;31.70;16.40;;;;;;;2.56;69.30;101236.33;107360;1266;73244;-75
2023/01/14 15:01:34;;;;;;;29.80;15.80;;;;;;;2.63;68.84;101237.04;107379;1266;60836;-75
2023/01/14 15:04:03;;;;;;;31.60;17.50;;;;;;;2.69;68.61;101237.17;107349;1266;62151;-77
2023/01/14 15:06:30;;;;;;;34.40;18.10;;;;;;;2.73;68.23;101241.66;107397;1266;70246;-75
2023/01/14 15:09:01;;;;;;;33.20;17.70;;;;;;;2.76;67.77;101242.20;107328;1265;74244;-75
2023/01/14 15:11:33;;;;;;;32.70;18.10;;;;;;;2.79;67.62;101238.58;107391;1265;73226;-76
2023/01/14 15:14:00;;;;;;;36.60;19.00;;;;;;;2.81;67.34;101242.33;107303;1266;61147;-75
2023/01/14 15:16:34;;;;;;;31.40;16.90;;;;;;;2.83;66.96;101244.38;107408;1265;60630;-77
2023/01/14 15:19:01;;;;;;;32.30;17.90;;;;;;;2.86;66.92;101241.36;107385;1266;73201;-75
2023/01/14 15:21:32;;;;;;;35.50;18.50;;;;;;;2.88;66.62;101240.77;107440;1265;74530;-76
2023/01/14 15:24:06;;;;;;;31.30;17.20;;;;;;;2.90;66.37;101238.08;107347;1266;73910;-75
2023/01/14 15:26:34;;;;;;;30.60;16.50;;;;;;;2.92;66.16;101235.11;107698;1261;60143;-76
2023/01/14 15:29:01;;;;;;;29.40;16.20;;;;;;;2.94;66.02;101238.23;107710;1259;60333;-75
2023/01/14 15:31:31;;;;;;;31.20;17.00;;;;;;;2.96;65.95;101241.89;107745;1259;72719;-75
2023/01/14 15:34:23;;;;;;;28.90;17.00;;;;;;;2.93;65.69;101244.39;107720;1259;72673;-74
2023/01/14 15:37:07;;;;;;;30.60;17.20;;;;;;;2.96;65.66;101249.66;107563;1264;73450;-75
2023/01/14 15:39:35;;;;;;;26.50;16.10;;;;;;;2.98;65.25;101248.16;107568;1264;61411;-75
2023/01/14 15:42:05;;;;;;;32.60;19.40;;;;;;;2.94;65.14;101250.89;107606;1260;59497;-75
2023/01/14 15:44:40;;;;;;;35.40;21.30;;;;;;;2.90;65.06;101253.89;107502;1261;75644;-75
2023/01/14 15:47:07;;;;;;;31.50;17.60;;;;;;;2.86;64.99;101257.35;107611;1260;71777;-76
2023/01/14 15:49:37;;;;;;;30.30;16.30;;;;;;;2.82;64.96;101256.55;107588;1259;73535;-76
2023/01/14 15:52:06;;;;;;;32.60;16.90;;;;;;;2.77;64.90;101260.00;107517;1261;59657;-76
2023/01/14 15:54:43;;;;;;;30.60;16.40;;;;;;;2.72;64.83;101258.75;107574;1262;59708;-75
2023/01/14 15:57:27;;;;;;;31.90;16.70;;;;;;;2.69;64.85;101261.53;107452;1261;72680;-76
2023/01/14 16:00:12;;;;;;;27.90;15.70;;;;;;;2.68;65.16;101258.64;107629;1259;72604;-74
2023/01/14 16:02:39;;;;;;;30.60;18.00;;;;;;;2.68;65.31;101255.67;107622;1259;72708;-74
2023/01/14 16:05:25;;;;;;;31.70;17.40;;;;;;;2.71;65.29;101254.92;107552;1259;59642;-75
2023/01/14 16:07:52;;;;;;;29.60;17.10;;;;;;;2.75;65.39;101254.15;107683;1259;62551;-76
2023/01/14 16:10:19;;;;;;;30.50;17.10;;;;;;;2.77;65.51;101254.42;107575;1260;75169;-76
2023/01/14 16:12:50;;;;;;;32.90;18.40;;;;;;;2.82;65.62;101254.03;107550;1261;75605;-76
2023/01/14 16:15:20;;;;;;;29.50;17.20;;;;;;;2.84;65.50;101250.89;107536;1262;72732;-76
2023/01/14 16:17:48;;;;;;;31.70;17.00;;;;;;;2.84;65.65;101249.67;107575;1262;62644;-76
2023/01/14 16:20:16;;;;;;;30.00;16.40;;;;;;;2.84;65.77;101250.44;107536;1260;61172;-76
2023/01/14 16:22:43;;;;;;;32.00;16.80;;;;;;;2.84;65.90;101243.91;107572;1261;73888;-76
2023/01/14 16:25:10;;;;;;;30.10;17.20;;;;;;;2.85;65.83;101244.92;107548;1260;72845;-76
2023/01/14 16:27:37;;;;;;;29.30;16.40;;;;;;;2.89;66.00;101247.11;107588;1259;74755;-75
2023/01/14 16:30:05;;;;;;;32.50;17.40;;;;;;;2.90;66.07;101246.44;107618;1260;59534;-76
2023/01/14 16:32:53;;;;;;;30.50;16.20;;;;;;;2.93;66.02;101252.59;107540;1264;61064;-75
2023/01/14 16:35:20;;;;;;;30.50;17.20;;;;;;;2.95;65.97;101247.73;107582;1259;71616;-75
2023/01/14 16:37:47;;;;;;;30.70;16.70;;;;;;;2.98;66.01;101245.48;107651;1260;72723;-75
2023/01/14 16:40:17;;;;;;;30.30;17.40;;;;;;;2.99;65.97;101246.52;107500;1262;71256;-75
2023/01/14 16:42:46;;;;;;;30.10;17.10;;;;;;;3.00;66.01;101244.73;107600;1260;62001;-76
2023/01/14 16:45:14;;;;;;;30.10;17.30;;;;;;;3.00;66.05;101240.07;107596;1259;59553;-77
2023/01/14 16:47:41;;;;;;;26.80;16.70;;;;;;;3.01;65.92;101243.89;107663;1259;75173;-76
2023/01/14 16:50:09;;;;;;;31.30;17.30;;;;;;;2.99;65.90;101246.91;107474;1259;71363;-76
2023/01/14 16:52:36;;;;;;;32.00;16.70;;;;;;;2.94;65.88;101248.61;107578;1259;74412;-76
2023/01/14 16:55:03;;;;;;;31.70;17.50;;;;;;;2.92;66.09;101247.63;107559;1261;61127;-76
2023/01/14 16:57:30;;;;;;;30.40;16.70;;;;;;;2.94;66.03;101249.88;107590;1259;59871;-76
2023/01/14 16:59:57;;;;;;;32.80;17.80;;;;;;;2.97;66.25;101246.62;107585;1259;74744;-75
2023/01/14 17:02:24;;;;;;;31.80;17.20;;;;;;;3.00;66.24;101249.20;107557;1264;73910;-75
2023/01/14 17:04:51;;;;;;;31.70;17.60;;;;;;;3.01;66.32;101249.09;107584;1262;74291;-77
2023/01/14 17:07:18;;;;;;;33.00;17.60;;;;;;;3.03;66.20;101248.34;107574;1259;60206;-76
2023/01/14 17:09:46;;;;;;;28.80;16.70;;;;;;;3.05;66.19;101249.48;107569;1260;59602;-76
2023/01/14 17:15:01;;;;;;;28.10;17.10;;;;;;;3.10;66.24;101251.92;107546;1261;72961;-76
2023/01/14 17:17:29;;;;;;;26.80;15.70;;;;;;;3.12;66.19;101253.55;107543;1262;72550;-78
2023/01/14 17:19:56;;;;;;;26.00;15.40;;;;;;;3.14;66.20;101255.45;107663;1260;59723;-75
2023/01/14 17:22:23;;;;;;;27.60;15.90;;;;;;;3.15;66.37;101257.77;107650;1259;61444;-75
2023/01/14 17:24:50;;;;;;;29.10;15.20;;;;;;;3.16;66.27;101255.38;107656;1260;74450;-75
2023/01/14 17:27:18;;;;;;;28.20;15.50;;;;;;;3.18;66.32;101255.92;107962;1257;72761;-76
2023/01/14 17:29:45;;;;;;;29.90;15.70;;;;;;;3.20;66.22;101255.06;107937;1256;71940;-75
2023/01/14 17:32:12;;;;;;;25.40;14.40;;;;;;;3.21;66.07;101246.69;107940;1261;60374;-75
2023/01/14 17:34:40;;;;;;;27.60;14.40;;;;;;;3.21;66.22;101246.48;107952;1256;62012;-74
2023/01/14 17:37:07;;;;;;;28.80;15.80;;;;;;;3.19;66.08;101250.66;107957;1256;73218;-74
2023/01/14 17:39:34;;;;;;;31.50;16.70;;;;;;;3.18;66.19;101253.45;108001;1256;73038;-75
2023/01/14 17:42:10;;;;;;;27.50;15.10;;;;;;;3.17;66.16;101260.52;108054;1256;72824;-74
2023/01/14 17:44:37;;;;;;;26.90;15.10;;;;;;;3.16;66.36;101258.79;107950;1256;60423;-75
2023/01/14 17:47:05;;;;;;;28.00;15.20;;;;;;;3.15;66.06;101257.44;107973;1261;59089;-74
2023/01/14 17:49:32;;;;;;;27.30;15.50;;;;;;;3.14;66.16;101257.32;107956;1256;70725;-75
2023/01/14 17:52:03;;;;;;;27.60;15.60;;;;;;;3.10;66.00;101257.20;107976;1260;74807;-74
2023/01/14 17:54:30;;;;;;;26.60;15.40;;;;;;;3.08;66.08;101256.41;107967;1256;71464;-76
2023/01/14 17:57:14;;;;;;;25.60;14.60;;;;;;;3.07;66.10;101263.02;107907;1258;62168;-75
2023/01/14 17:59:42;;;;;;;26.10;14.90;;;;;;;3.07;66.11;101266.59;108003;1257;60345;-76
2023/01/14 18:02:10;;;;;;;27.40;15.30;;;;;;;3.05;66.18;101265.84;107976;1257;71850;-76
2023/01/14 18:04:37;;;;;;;25.20;14.80;;;;;;;3.06;66.37;101268.73;108063;1257;74154;-76
2023/01/14 18:07:04;;;;;;;27.40;15.40;;;;;;;3.08;66.25;101263.89;108024;1258;71902;-76
2023/01/14 18:09:31;;;;;;;26.70;14.90;;;;;;;3.06;66.31;101264.89;108017;1257;61692;-75
2023/01/14 18:11:58;;;;;;;26.10;15.20;;;;;;;3.07;66.44;101261.13;108001;1259;59505;-75
2023/01/14 18:14:25;;;;;;;27.70;15.70;;;;;;;3.09;66.46;101264.78;108073;1258;75059;-76
2023/01/14 18:16:52;;;;;;;25.40;14.40;;;;;;;3.08;66.43;101263.84;108022;1257;72777;-74
2023/01/14 18:19:19;;;;;;;25.80;14.50;;;;;;;3.09;66.56;101268.84;107953;1258;72689;-75
2023/01/14 18:21:46;;;;;;;27.80;15.20;;;;;;;3.11;66.54;101269.63;107928;1259;60588;-76
2023/01/14 18:24:13;;;;;;;24.60;14.30;;;;;;;3.11;66.47;101270.52;107940;1260;59801;-77
2023/01/14 18:26:41;;;;;;;23.50;14.40;;;;;;;3.09;66.53;101268.88;107990;1256;73396;-76
2023/01/14 18:29:09;;;;;;;23.90;13.70;;;;;;;3.09;66.49;101270.15;107945;1256;74308;-75
2023/01/14 18:31:36;;;;;;;23.70;14.10;;;;;;;3.10;66.58;101269.06;107898;1258;74136;-75
2023/01/14 18:34:05;;;;;;;26.60;14.30;;;;;;;3.08;66.59;101268.27;107928;1259;59326;-76
2023/01/14 18:36:38;;;;;;;25.00;13.60;;;;;;;3.05;66.62;101269.75;107901;1256;60435;-77
2023/01/14 18:39:07;;;;;;;23.70;13.90;;;;;;;3.04;66.68;101277.41;107869;1261;73563;-76
2023/01/14 18:41:34;;;;;;;24.10;13.80;;;;;;;3.04;66.61;101281.71;108022;1256;71960;-76
2023/01/14 18:44:01;;;;;;;25.10;13.90;;;;;;;3.03;66.72;101279.48;107882;1258;71038;-76
2023/01/14 18:46:28;;;;;;;23.30;13.00;;;;;;;3.04;66.66;101277.77;107892;1257;62432;-74
2023/01/14 18:48:56;;;;;;;23.60;13.60;;;;;;;3.05;66.70;101276.44;108018;1257;59498;-75
2023/01/14 18:51:25;;;;;;;24.90;14.10;;;;;;;3.06;66.79;101276.63;108006;1256;75167;-76
2023/01/14 18:53:52;;;;;;;28.10;15.10;;;;;;;3.09;66.80;101274.73;108008;1257;73592;-76
2023/01/14 18:56:27;;;;;;;31.40;16.60;;;;;;;3.11;66.85;101270.73;108053;1256;73551;-75
2023/01/14 18:58:56;;;;;;;35.90;18.10;;;;;;;3.11;66.82;101270.48;107974;1256;60870;-76
2023/01/14 19:01:28;;;;;;;33.20;17.20;;;;;;;3.11;66.76;101266.63;108008;1256;62205;-75
2023/01/14 19:03:57;;;;;;;36.50;18.10;;;;;;;3.10;66.70;101261.86;108003;1257;76087;-75
2023/01/14 19:06:24;;;;;;;35.20;18.70;;;;;;;3.10;66.90;101262.15;108032;1257;71396;-76
2023/01/14 19:08:51;;;;;;;34.50;18.20;;;;;;;3.11;66.98;101258.30;108000;1257;71205;-76
2023/01/14 19:14:09;;;;;;;35.30;17.50;;;;;;;3.15;66.97;101261.14;108007;1257;60927;-77
2023/01/14 19:16:37;;;;;;;35.20;18.70;;;;;;;3.16;66.96;101267.00;107978;1258;75955;-75
2023/01/14 19:19:05;;;;;;;37.00;18.90;;;;;;;3.17;67.00;101262.46;108022;1256;73947;-77
2023/01/14 19:21:32;;;;;;;35.20;18.70;;;;;;;3.17;66.89;101256.53;107972;1260;72633;-76
2023/01/14 19:23:59;;;;;;;38.40;19.70;;;;;;;3.17;66.88;101256.48;107985;1257;62101;-75
2023/01/14 19:26:26;;;;;;;33.00;17.40;;;;;;;3.02;67.01;101258.55;108009;1260;62609;-75
2023/01/14 19:28:54;;;;;;;34.40;17.80;;;;;;;3.04;67.35;101260.20;107987;1257;72608;-75
2023/01/14 19:31:21;;;;;;;35.70;19.30;;;;;;;3.11;66.94;101261.80;107766;1257;72805;-75
2023/01/14 19:33:48;;;;;;;33.40;17.50;;;;;;;3.10;66.94;101257.00;107798;1257;71790;-76
2023/01/14 19:36:16;;;;;;;35.40;17.80;;;;;;;3.09;66.88;101259.25;107966;1258;61406;-76
2023/01/14 19:38:43;;;;;;;32.30;17.40;;;;;;;3.09;66.94;101254.91;108032;1257;60480;-76
2023/01/14 19:41:13;;;;;;;35.10;17.90;;;;;;;3.09;66.89;101251.79;107973;1260;75159;-75
2023/01/14 19:43:41;;;;;;;37.20;18.00;;;;;;;3.11;66.85;101254.17;107974;1257;73225;-76
2023/01/14 19:46:09;;;;;;;30.10;16.60;;;;;;;3.10;66.89;101255.13;107945;1258;73437;-75
2023/01/14 19:48:38;;;;;;;28.80;15.60;;;;;;;3.07;66.77;101257.06;107806;1257;61819;-77
2023/01/14 19:51:06;;;;;;;30.20;15.40;;;;;;;3.06;66.91;101254.17;108019;1255;60297;-77
2023/01/14 20:06:16;;;;;;;25.70;15.60;;;;;;;3.09;67.16;101250.36;106006;1280;613632;-71
2023/01/14 20:08:44;;;;;;;26.40;15.00;;;;;;;3.45;66.37;101245.98;107332;1264;126852;-70
2023/01/14 20:11:13;;;;;;;26.20;15.30;;;;;;;3.42;66.15;101249.82;108081;1256;61373;-70
2023/01/14 20:13:40;;;;;;;29.80;17.00;;;;;;;3.40;66.29;101245.04;108026;1257;72593;-69
2023/01/14 20:16:09;;;;;;;30.20;16.70;;;;;;;3.37;66.31;101241.65;108008;1257;71835;-70
2023/01/14 20:18:36;;;;;;;33.10;18.20;;;;;;;3.34;66.23;101243.59;107998;1257;71746;-69
2023/01/14 20:21:14;;;;;;;33.90;18.00;;;;;;;3.31;66.38;101242.30;107966;1257;62430;-70
2023/01/14 20:23:41;;;;;;;32.50;16.80;;;;;;;3.28;66.37;101244.52;108035;1257;61320;-72
2023/01/14 20:26:13;;;;;;;29.90;16.30;;;;;;;3.27;66.37;101251.17;107963;1257;72927;-70
2023/01/14 20:28:41;;;;;;;28.10;15.50;;;;;;;3.25;66.26;101249.52;108080;1257;74030;-69
2023/01/14 20:31:29;;;;;;;30.30;15.70;;;;;;;3.24;66.41;101254.55;108043;1257;72014;-71
2023/01/14 20:33:57;;;;;;;24.90;14.80;;;;;;;3.26;66.42;101257.17;108030;1257;61357;-70
2023/01/14 20:36:24;;;;;;;27.50;15.60;;;;;;;3.26;66.47;101258.43;108079;1257;60450;-70
2023/01/14 20:38:54;;;;;;;27.40;15.00;;;;;;;3.26;66.51;101253.28;108060;1257;73316;-70
2023/01/14 20:41:23;;;;;;;26.50;13.90;;;;;;;3.26;66.49;101258.59;108142;1258;73305;-71
2023/01/14 20:43:50;;;;;;;31.30;15.80;;;;;;;3.25;66.44;101259.84;108114;1255;71735;-71
2023/01/14 20:46:23;;;;;;;27.50;14.70;;;;;;;3.23;66.34;101264.67;108106;1255;61270;-71
2023/01/14 20:48:50;;;;;;;26.60;14.00;;;;;;;3.22;66.43;101266.42;108074;1256;59351;-69
2023/01/14 20:51:18;;;;;;;26.80;14.20;;;;;;;3.16;66.27;101261.23;108009;1258;73979;-70
2023/01/14 20:53:45;;;;;;;23.80;12.90;;;;;;;3.14;66.37;101259.71;108056;1257;72323;-70
2023/01/14 20:56:14;;;;;;;26.90;14.60;;;;;;;3.14;66.35;101256.87;107870;1257;72992;-69
2023/01/14 21:01:11;;;;;;;29.50;14.90;;;;;;;3.17;66.35;101265.83;107925;1257;60900;-72